sensor_id;sensor_type;location;lat;lon;timestamp;temperature;humidity
10678;DHT22;5387;48.722;9.110;2024-03-06T00:00:25;5.10;99.90
10678;DHT22;5387;48.722;9.110;2024-03-06T00:02:52;5.20;99.90
10678;DHT22;5387;48.722;9.110;2024-03-06T00:05:19;5.20;99.90
10678;DHT22;5387;48.722;9.110;2024-03-06T00:07:47;5.20;99.90
10678;DHT22;5387;48.722;9.110;2024-03-06T00:10:14;5.20;99.90
10678;DHT22;5387;48.722;9.110;2024-03-06T00:12:41;5.20;99.90
10678;DHT22;5387;48.722;9.110;2024-03-06T00:15:08;5.20;99.90
10678;DHT22;5387;48.722;9.110;2024-03-06T00:17:35;5.20;99.90
10678;DHT22;5387;48.722;9.110;2024-03-06T00:20:02;5.20;99.90
10678;DHT22;5387;48.722;9.110;2024-03-06T00:22:31;5.30;99.90
10678;DHT22;5387;48.722;9.110;2024-03-06T00:24:59;5.30;99.90
10678;DHT22;5387;48.722;9.110;2024-03-06T00:27:26;5.40;99.90
10678;DHT22;5387;48.722;9.110;2024-03-06T00:29:53;5.30;99.90
10678;DHT22;5387;48.722;9.110;2024-03-06T00:32:20;5.30;99.90
10678;DHT22;5387;48.722;9.110;2024-03-06T00:34:49;5.30;99.90
10678;DHT22;5387;48.722;9.110;2024-03-06T00:37:16;5.30;99.90
10678;DHT22;5387;48.722;9.110;2024-03-06T00:39:43;5.40;99.90
10678;DHT22;5387;48.722;9.110;2024-03-06T00:42:11;5.20;99.90
10678;DHT22;5387;48.722;9.110;2024-03-06T00:44:39;5.30;99.90
10678;DHT22;5387;48.722;9.110;2024-03-06T00:47:06;5.20;99.90
10678;DHT22;5387;48.722;9.110;2024-03-06T00:49:33;5.20;99.90
10678;DHT22;5387;48.722;9.110;2024-03-06T00:51:59;5.30;99.90
10678;DHT22;5387;48.722;9.110;2024-03-06T00:54:26;5.20;99.90
10678;DHT22;5387;48.722;9.110;2024-03-06T00:56:53;5.30;99.90
10678;DHT22;5387;48.722;9.110;2024-03-06T00:59:21;5.30;99.90
10678;DHT22;5387;48.722;9.110;2024-03-06T01:01:48;5.30;99.90
10678;DHT22;5387;48.722;9.110;2024-03-06T01:04:15;5.30;99.90
10678;DHT22;5387;48.722;9.110;2024-03-06T01:06:42;5.30;99.90
10678;DHT22;5387;48.722;9.110;2024-03-06T01:09:08;5.20;99.90
10678;DHT22;5387;48.722;9.110;2024-03-06T01:11:35;5.20;99.90
10678;DHT22;5387;48.722;9.110;2024-03-06T01:14:02;5.10;99.90
10678;DHT22;5387;48.722;9.110;2024-03-06T01:16:30;5.20;99.90
10678;DHT22;5387;48.722;9.110;2024-03-06T01:18:57;5.20;99.90
10678;DHT22;5387;48.722;9.110;2024-03-06T01:21:24;5.20;99.90
10678;DHT22;5387;48.722;9.110;2024-03-06T01:23:50;5.20;99.90
10678;DHT22;5387;48.722;9.110;2024-03-06T01:26:17;5.20;99.90
10678;DHT22;5387;48.722;9.110;2024-03-06T01:28:44;5.20;99.90
10678;DHT22;5387;48.722;9.110;2024-03-06T01:31:11;5.20;99.90
10678;DHT22;5387;48.722;9.110;2024-03-06T01:33:39;5.10;99.90
10678;DHT22;5387;48.722;9.110;2024-03-06T01:36:06;5.00;99.90
10678;DHT22;5387;48.722;9.110;2024-03-06T01:38:33;5.10;99.90
10678;DHT22;5387;48.722;9.110;2024-03-06T01:40:59;5.10;99.90
10678;DHT22;5387;48.722;9.110;2024-03-06T01:43:27;5.10;99.90
10678;DHT22;5387;48.722;9.110;2024-03-06T01:45:54;5.10;99.90
10678;DHT22;5387;48.722;9.110;2024-03-06T01:48:23;5.10;99.90
10678;DHT22;5387;48.722;9.110;2024-03-06T01:50:55;5.10;99.90
10678;DHT22;5387;48.722;9.110;2024-03-06T01:53:22;5.10;99.90
10678;DHT22;5387;48.722;9.110;2024-03-06T01:55:50;5.10;99.90
10678;DHT22;5387;48.722;9.110;2024-03-06T01:58:17;5.20;99.90
10678;DHT22;5387;48.722;9.110;2024-03-06T02:00:47;5.20;99.90
10678;DHT22;5387;48.722;9.110;2024-03-06T02:03:14;5.20;99.90
10678;DHT22;5387;48.722;9.110;2024-03-06T02:05:41;5.30;99.90
10678;DHT22;5387;48.722;9.110;2024-03-06T02:08:10;5.30;99.90
10678;DHT22;5387;48.722;9.110;2024-03-06T02:10:36;5.40;99.90
10678;DHT22;5387;48.722;9.110;2024-03-06T02:13:03;5.30;99.90
10678;DHT22;5387;48.722;9.110;2024-03-06T02:15:30;5.40;99.90
10678;DHT22;5387;48.722;9.110;2024-03-06T02:17:57;5.30;99.90
10678;DHT22;5387;48.722;9.110;2024-03-06T02:20:26;5.40;99.90
10678;DHT22;5387;48.722;9.110;2024-03-06T02:22:53;5.40;99.90
10678;DHT22;5387;48.722;9.110;2024-03-06T02:25:20;5.40;99.90
10678;DHT22;5387;48.722;9.110;2024-03-06T02:27:47;5.40;99.90
10678;DHT22;5387;48.722;9.110;2024-03-06T02:30:14;5.40;99.90
10678;DHT22;5387;48.722;9.110;2024-03-06T02:32:41;5.30;99.90
10678;DHT22;5387;48.722;9.110;2024-03-06T02:35:09;5.30;99.90
10678;DHT22;5387;48.722;9.110;2024-03-06T02:37:37;5.30;99.90
10678;DHT22;5387;48.722;9.110;2024-03-06T02:40:05;5.30;99.90
10678;DHT22;5387;48.722;9.110;2024-03-06T02:42:34;5.30;99.90
10678;DHT22;5387;48.722;9.110;2024-03-06T02:45:01;5.20;99.90
10678;DHT22;5387;48.722;9.110;2024-03-06T02:47:27;5.20;99.90
10678;DHT22;5387;48.722;9.110;2024-03-06T02:49:54;5.20;99.90
10678;DHT22;5387;48.722;9.110;2024-03-06T02:52:21;5.20;99.90
10678;DHT22;5387;48.722;9.110;2024-03-06T02:54:49;5.30;99.90
10678;DHT22;5387;48.722;9.110;2024-03-06T02:57:16;5.10;99.90
10678;DHT22;5387;48.722;9.110;2024-03-06T02:59:43;5.10;99.90
10678;DHT22;5387;48.722;9.110;2024-03-06T03:02:10;5.10;99.90
10678;DHT22;5387;48.722;9.110;2024-03-06T03:04:36;5.10;99.90
10678;DHT22;5387;48.722;9.110;2024-03-06T03:07:03;5.30;99.90
10678;DHT22;5387;48.722;9.110;2024-03-06T03:09:31;5.00;99.90
10678;DHT22;5387;48.722;9.110;2024-03-06T03:11:59;5.10;99.90
10678;DHT22;5387;48.722;9.110;2024-03-06T03:14:25;5.10;99.90
10678;DHT22;5387;48.722;9.110;2024-03-06T03:16:52;5.30;99.90
10678;DHT22;5387;48.722;9.110;2024-03-06T03:19:19;5.20;99.90
10678;DHT22;5387;48.722;9.110;2024-03-06T03:21:46;5.20;99.90
10678;DHT22;5387;48.722;9.110;2024-03-06T03:24:13;5.30;99.90
10678;DHT22;5387;48.722;9.110;2024-03-06T03:26:40;5.30;99.90
10678;DHT22;5387;48.722;9.110;2024-03-06T03:29:08;5.30;99.90
10678;DHT22;5387;48.722;9.110;2024-03-06T03:31:35;5.20;99.90
10678;DHT22;5387;48.722;9.110;2024-03-06T03:34:04;5.30;99.90
10678;DHT22;5387;48.722;9.110;2024-03-06T03:36:30;5.20;99.90
10678;DHT22;5387;48.722;9.110;2024-03-06T03:38:58;5.20;99.90
10678;DHT22;5387;48.722;9.110;2024-03-06T03:41:25;5.20;99.90
10678;DHT22;5387;48.722;9.110;2024-03-06T03:43:52;5.20;99.90
10678;DHT22;5387;48.722;9.110;2024-03-06T03:46:20;5.30;99.90
10678;DHT22;5387;48.722;9.110;2024-03-06T03:48:47;5.10;99.90
10678;DHT22;5387;48.722;9.110;2024-03-06T03:51:14;5.10;99.90
10678;DHT22;5387;48.722;9.110;2024-03-06T03:53:40;5.10;99.90
10678;DHT22;5387;48.722;9.110;2024-03-06T03:56:07;5.00;99.90
10678;DHT22;5387;48.722;9.110;2024-03-06T03:58:34;5.10;99.90
10678;DHT22;5387;48.722;9.110;2024-03-06T04:01:01;5.10;99.90
10678;DHT22;5387;48.722;9.110;2024-03-06T04:03:29;5.10;99.90
10678;DHT22;5387;48.722;9.110;2024-03-06T04:05:56;5.10;99.90
10678;DHT22;5387;48.722;9.110;2024-03-06T04:08:22;5.20;99.90
10678;DHT22;5387;48.722;9.110;2024-03-06T04:10:49;5.20;99.90
10678;DHT22;5387;48.722;9.110;2024-03-06T04:13:15;5.10;99.90
10678;DHT22;5387;48.722;9.110;2024-03-06T04:15:45;5.10;99.90
10678;DHT22;5387;48.722;9.110;2024-03-06T04:18:12;5.20;99.90
10678;DHT22;5387;48.722;9.110;2024-03-06T04:20:40;5.20;99.90
10678;DHT22;5387;48.722;9.110;2024-03-06T04:23:07;5.20;99.90
10678;DHT22;5387;48.722;9.110;2024-03-06T04:25:34;5.20;99.90
10678;DHT22;5387;48.722;9.110;2024-03-06T04:28:03;5.20;99.90
10678;DHT22;5387;48.722;9.110;2024-03-06T04:30:29;5.30;99.90
10678;DHT22;5387;48.722;9.110;2024-03-06T04:32:56;5.30;99.90
10678;DHT22;5387;48.722;9.110;2024-03-06T04:35:23;5.40;99.90
10678;DHT22;5387;48.722;9.110;2024-03-06T04:37:51;5.30;99.90
10678;DHT22;5387;48.722;9.110;2024-03-06T04:40:18;5.30;99.90
10678;DHT22;5387;48.722;9.110;2024-03-06T04:42:47;5.40;99.90
10678;DHT22;5387;48.722;9.110;2024-03-06T04:45:15;5.40;99.90
10678;DHT22;5387;48.722;9.110;2024-03-06T04:47:42;5.40;99.90
10678;DHT22;5387;48.722;9.110;2024-03-06T04:50:10;5.40;99.90
10678;DHT22;5387;48.722;9.110;2024-03-06T04:52:38;5.40;99.90
10678;DHT22;5387;48.722;9.110;2024-03-06T04:55:08;5.20;99.90
10678;DHT22;5387;48.722;9.110;2024-03-06T04:57:37;5.30;99.90
10678;DHT22;5387;48.722;9.110;2024-03-06T05:00:04;5.20;99.90
10678;DHT22;5387;48.722;9.110;2024-03-06T05:02:32;5.20;99.90
10678;DHT22;5387;48.722;9.110;2024-03-06T05:04:59;5.20;99.90
10678;DHT22;5387;48.722;9.110;2024-03-06T05:07:27;5.20;99.90
10678;DHT22;5387;48.722;9.110;2024-03-06T05:09:54;5.10;99.90
10678;DHT22;5387;48.722;9.110;2024-03-06T05:12:24;5.40;99.90
10678;DHT22;5387;48.722;9.110;2024-03-06T05:14:50;5.10;99.90
10678;DHT22;5387;48.722;9.110;2024-03-06T05:17:17;5.10;99.90
10678;DHT22;5387;48.722;9.110;2024-03-06T05:19:44;5.10;99.90
10678;DHT22;5387;48.722;9.110;2024-03-06T05:22:13;5.10;99.90
10678;DHT22;5387;48.722;9.110;2024-03-06T05:24:40;5.00;99.90
10678;DHT22;5387;48.722;9.110;2024-03-06T05:27:06;4.80;99.90
10678;DHT22;5387;48.722;9.110;2024-03-06T05:29:35;4.80;99.90
10678;DHT22;5387;48.722;9.110;2024-03-06T05:32:02;4.80;99.90
10678;DHT22;5387;48.722;9.110;2024-03-06T05:34:28;4.80;99.90
10678;DHT22;5387;48.722;9.110;2024-03-06T05:36:56;4.80;99.90
10678;DHT22;5387;48.722;9.110;2024-03-06T05:39:22;4.80;99.90
10678;DHT22;5387;48.722;9.110;2024-03-06T05:41:49;4.70;99.90
10678;DHT22;5387;48.722;9.110;2024-03-06T05:44:16;4.80;99.90
10678;DHT22;5387;48.722;9.110;2024-03-06T05:46:45;4.80;99.90
10678;DHT22;5387;48.722;9.110;2024-03-06T05:49:12;4.70;99.90
10678;DHT22;5387;48.722;9.110;2024-03-06T05:51:39;4.70;99.90
10678;DHT22;5387;48.722;9.110;2024-03-06T05:54:06;4.60;99.90
10678;DHT22;5387;48.722;9.110;2024-03-06T05:56:33;4.70;99.90
10678;DHT22;5387;48.722;9.110;2024-03-06T05:59:00;4.60;99.90
10678;DHT22;5387;48.722;9.110;2024-03-06T06:01:30;4.60;99.90
10678;DHT22;5387;48.722;9.110;2024-03-06T06:03:58;4.60;99.90
10678;DHT22;5387;48.722;9.110;2024-03-06T06:06:26;4.80;99.90
10678;DHT22;5387;48.722;9.110;2024-03-06T06:08:52;4.70;99.90
10678;DHT22;5387;48.722;9.110;2024-03-06T06:11:19;4.50;99.90
10678;DHT22;5387;48.722;9.110;2024-03-06T06:13:46;4.70;99.90
10678;DHT22;5387;48.722;9.110;2024-03-06T06:16:13;4.60;99.90
10678;DHT22;5387;48.722;9.110;2024-03-06T06:18:40;4.70;99.90
10678;DHT22;5387;48.722;9.110;2024-03-06T06:21:08;4.70;99.90
10678;DHT22;5387;48.722;9.110;2024-03-06T06:23:35;4.70;99.90
10678;DHT22;5387;48.722;9.110;2024-03-06T06:26:02;4.80;99.90
10678;DHT22;5387;48.722;9.110;2024-03-06T06:28:29;4.80;99.90
10678;DHT22;5387;48.722;9.110;2024-03-06T06:30:55;4.90;99.90
10678;DHT22;5387;48.722;9.110;2024-03-06T06:33:22;5.10;99.90
10678;DHT22;5387;48.722;9.110;2024-03-06T06:35:49;4.90;99.90
10678;DHT22;5387;48.722;9.110;2024-03-06T06:38:18;4.90;99.90
10678;DHT22;5387;48.722;9.110;2024-03-06T06:40:45;4.90;99.90
10678;DHT22;5387;48.722;9.110;2024-03-06T06:43:13;5.00;99.90
10678;DHT22;5387;48.722;9.110;2024-03-06T06:45:40;4.90;99.90
10678;DHT22;5387;48.722;9.110;2024-03-06T06:48:07;4.90;99.90
10678;DHT22;5387;48.722;9.110;2024-03-06T06:50:35;4.90;99.90
10678;DHT22;5387;48.722;9.110;2024-03-06T06:53:02;4.80;99.90
10678;DHT22;5387;48.722;9.110;2024-03-06T06:55:30;4.90;99.90
10678;DHT22;5387;48.722;9.110;2024-03-06T06:57:57;4.80;99.90
10678;DHT22;5387;48.722;9.110;2024-03-06T07:00:24;4.80;99.90
10678;DHT22;5387;48.722;9.110;2024-03-06T07:02:51;4.90;99.90
10678;DHT22;5387;48.722;9.110;2024-03-06T07:05:18;4.80;99.90
10678;DHT22;5387;48.722;9.110;2024-03-06T07:07:45;4.90;99.90
10678;DHT22;5387;48.722;9.110;2024-03-06T07:10:12;4.90;99.90
10678;DHT22;5387;48.722;9.110;2024-03-06T07:12:41;4.90;99.90
10678;DHT22;5387;48.722;9.110;2024-03-06T07:15:08;4.90;99.90
10678;DHT22;5387;48.722;9.110;2024-03-06T07:17:35;4.90;99.90
10678;DHT22;5387;48.722;9.110;2024-03-06T07:20:02;4.90;99.90
10678;DHT22;5387;48.722;9.110;2024-03-06T07:22:30;5.00;99.90
10678;DHT22;5387;48.722;9.110;2024-03-06T07:24:57;5.10;99.90
10678;DHT22;5387;48.722;9.110;2024-03-06T07:27:24;5.20;99.90
10678;DHT22;5387;48.722;9.110;2024-03-06T07:29:52;5.10;99.90
10678;DHT22;5387;48.722;9.110;2024-03-06T07:32:19;5.10;99.90
10678;DHT22;5387;48.722;9.110;2024-03-06T07:34:46;5.10;99.90
10678;DHT22;5387;48.722;9.110;2024-03-06T07:37:13;5.10;99.90
10678;DHT22;5387;48.722;9.110;2024-03-06T07:39:40;5.00;99.90
10678;DHT22;5387;48.722;9.110;2024-03-06T07:42:07;5.00;99.90
10678;DHT22;5387;48.722;9.110;2024-03-06T07:44:35;5.00;99.90
10678;DHT22;5387;48.722;9.110;2024-03-06T07:47:03;5.00;99.90
10678;DHT22;5387;48.722;9.110;2024-03-06T07:49:30;5.00;99.90
10678;DHT22;5387;48.722;9.110;2024-03-06T07:51:57;5.00;99.90
10678;DHT22;5387;48.722;9.110;2024-03-06T07:54:24;4.90;99.90
10678;DHT22;5387;48.722;9.110;2024-03-06T07:56:51;4.80;99.90
10678;DHT22;5387;48.722;9.110;2024-03-06T07:59:19;4.90;99.90
10678;DHT22;5387;48.722;9.110;2024-03-06T08:01:46;5.00;99.90
10678;DHT22;5387;48.722;9.110;2024-03-06T08:04:14;5.00;99.90
10678;DHT22;5387;48.722;9.110;2024-03-06T08:06:42;5.10;99.90
10678;DHT22;5387;48.722;9.110;2024-03-06T08:09:09;5.10;99.90
10678;DHT22;5387;48.722;9.110;2024-03-06T08:11:36;5.10;99.90
10678;DHT22;5387;48.722;9.110;2024-03-06T08:14:03;5.20;99.90
10678;DHT22;5387;48.722;9.110;2024-03-06T08:16:30;5.20;99.90
10678;DHT22;5387;48.722;9.110;2024-03-06T08:18:57;5.10;99.90
10678;DHT22;5387;48.722;9.110;2024-03-06T08:21:26;5.20;99.90
10678;DHT22;5387;48.722;9.110;2024-03-06T08:23:53;5.20;99.90
10678;DHT22;5387;48.722;9.110;2024-03-06T08:26:20;5.30;99.90
10678;DHT22;5387;48.722;9.110;2024-03-06T08:28:47;5.30;99.90
10678;DHT22;5387;48.722;9.110;2024-03-06T08:31:14;5.30;99.90
10678;DHT22;5387;48.722;9.110;2024-03-06T08:33:41;5.30;99.90
10678;DHT22;5387;48.722;9.110;2024-03-06T08:36:08;5.20;99.90
10678;DHT22;5387;48.722;9.110;2024-03-06T08:38:37;5.40;99.90
10678;DHT22;5387;48.722;9.110;2024-03-06T08:41:04;5.20;99.90
10678;DHT22;5387;48.722;9.110;2024-03-06T08:43:30;5.30;99.90
10678;DHT22;5387;48.722;9.110;2024-03-06T08:45:57;5.40;99.90
10678;DHT22;5387;48.722;9.110;2024-03-06T08:48:24;5.50;99.90
10678;DHT22;5387;48.722;9.110;2024-03-06T08:50:51;5.50;99.90
10678;DHT22;5387;48.722;9.110;2024-03-06T08:53:18;5.60;99.90
10678;DHT22;5387;48.722;9.110;2024-03-06T08:55:46;5.50;99.90
10678;DHT22;5387;48.722;9.110;2024-03-06T08:58:13;5.40;99.90
10678;DHT22;5387;48.722;9.110;2024-03-06T09:00:40;5.40;99.90
10678;DHT22;5387;48.722;9.110;2024-03-06T09:03:07;5.40;99.90
10678;DHT22;5387;48.722;9.110;2024-03-06T09:05:34;5.40;99.90
10678;DHT22;5387;48.722;9.110;2024-03-06T09:08:00;5.50;99.90
10678;DHT22;5387;48.722;9.110;2024-03-06T09:10:28;5.50;99.90
10678;DHT22;5387;48.722;9.110;2024-03-06T09:12:56;5.40;99.90
10678;DHT22;5387;48.722;9.110;2024-03-06T09:15:23;5.40;99.90
10678;DHT22;5387;48.722;9.110;2024-03-06T09:17:51;5.50;99.90
10678;DHT22;5387;48.722;9.110;2024-03-06T09:20:18;5.40;99.90
10678;DHT22;5387;48.722;9.110;2024-03-06T09:22:44;5.30;99.90
10678;DHT22;5387;48.722;9.110;2024-03-06T09:25:12;5.40;99.90
10678;DHT22;5387;48.722;9.110;2024-03-06T09:27:40;5.50;99.90
10678;DHT22;5387;48.722;9.110;2024-03-06T09:30:09;5.60;99.90
10678;DHT22;5387;48.722;9.110;2024-03-06T09:32:39;5.70;99.90
10678;DHT22;5387;48.722;9.110;2024-03-06T09:35:07;5.90;99.90
10678;DHT22;5387;48.722;9.110;2024-03-06T09:37:34;5.90;99.90
10678;DHT22;5387;48.722;9.110;2024-03-06T09:40:01;6.00;99.90
10678;DHT22;5387;48.722;9.110;2024-03-06T09:42:28;5.90;99.90
10678;DHT22;5387;48.722;9.110;2024-03-06T09:44:55;5.70;99.90
10678;DHT22;5387;48.722;9.110;2024-03-06T09:47:24;6.00;99.90
10678;DHT22;5387;48.722;9.110;2024-03-06T09:49:52;6.00;99.90
10678;DHT22;5387;48.722;9.110;2024-03-06T09:52:20;6.00;99.90
10678;DHT22;5387;48.722;9.110;2024-03-06T09:54:48;5.80;99.90
10678;DHT22;5387;48.722;9.110;2024-03-06T09:57:15;5.70;99.90
10678;DHT22;5387;48.722;9.110;2024-03-06T09:59:42;5.60;99.90
10678;DHT22;5387;48.722;9.110;2024-03-06T10:02:19;5.60;99.90
10678;DHT22;5387;48.722;9.110;2024-03-06T10:04:52;5.60;99.90
10678;DHT22;5387;48.722;9.110;2024-03-06T10:07:19;5.50;99.90
10678;DHT22;5387;48.722;9.110;2024-03-06T10:09:47;5.50;99.90
10678;DHT22;5387;48.722;9.110;2024-03-06T10:12:17;5.50;99.90
10678;DHT22;5387;48.722;9.110;2024-03-06T10:14:49;5.50;99.90
10678;DHT22;5387;48.722;9.110;2024-03-06T10:17:19;5.60;99.90
10678;DHT22;5387;48.722;9.110;2024-03-06T10:19:48;5.70;99.90
10678;DHT22;5387;48.722;9.110;2024-03-06T10:22:18;5.80;99.90
10678;DHT22;5387;48.722;9.110;2024-03-06T10:24:46;5.70;99.90
10678;DHT22;5387;48.722;9.110;2024-03-06T10:27:15;5.80;99.90
10678;DHT22;5387;48.722;9.110;2024-03-06T10:29:42;5.90;99.90
10678;DHT22;5387;48.722;9.110;2024-03-06T10:32:09;5.90;99.90
10678;DHT22;5387;48.722;9.110;2024-03-06T10:34:37;6.00;99.90
10678;DHT22;5387;48.722;9.110;2024-03-06T10:37:04;5.90;99.90
10678;DHT22;5387;48.722;9.110;2024-03-06T10:39:33;5.80;99.90
10678;DHT22;5387;48.722;9.110;2024-03-06T10:42:03;5.90;99.90
10678;DHT22;5387;48.722;9.110;2024-03-06T10:44:32;5.90;99.90
10678;DHT22;5387;48.722;9.110;2024-03-06T10:47:01;5.90;99.90
10678;DHT22;5387;48.722;9.110;2024-03-06T10:49:29;5.90;99.90
10678;DHT22;5387;48.722;9.110;2024-03-06T10:51:57;6.10;99.90
10678;DHT22;5387;48.722;9.110;2024-03-06T10:54:27;6.10;99.90
10678;DHT22;5387;48.722;9.110;2024-03-06T10:56:56;6.30;99.90
10678;DHT22;5387;48.722;9.110;2024-03-06T10:59:25;6.30;99.90
10678;DHT22;5387;48.722;9.110;2024-03-06T11:01:54;6.30;99.90
10678;DHT22;5387;48.722;9.110;2024-03-06T11:04:24;6.20;99.90
10678;DHT22;5387;48.722;9.110;2024-03-06T11:06:52;6.20;99.90
10678;DHT22;5387;48.722;9.110;2024-03-06T11:09:19;6.20;99.90
10678;DHT22;5387;48.722;9.110;2024-03-06T11:11:49;6.20;99.90
10678;DHT22;5387;48.722;9.110;2024-03-06T11:14:18;6.10;99.90
10678;DHT22;5387;48.722;9.110;2024-03-06T11:16:58;5.90;99.90
10678;DHT22;5387;48.722;9.110;2024-03-06T11:19:25;5.80;99.90
10678;DHT22;5387;48.722;9.110;2024-03-06T11:21:52;5.80;99.90
10678;DHT22;5387;48.722;9.110;2024-03-06T11:24:20;5.80;99.90
10678;DHT22;5387;48.722;9.110;2024-03-06T11:26:49;5.80;99.90
10678;DHT22;5387;48.722;9.110;2024-03-06T11:29:18;6.00;99.90
10678;DHT22;5387;48.722;9.110;2024-03-06T11:32:05;5.90;99.90
10678;DHT22;5387;48.722;9.110;2024-03-06T11:34:33;5.80;99.90
10678;DHT22;5387;48.722;9.110;2024-03-06T11:37:03;5.70;99.90
10678;DHT22;5387;48.722;9.110;2024-03-06T11:39:33;5.60;99.90
10678;DHT22;5387;48.722;9.110;2024-03-06T11:42:03;5.70;99.90
10678;DHT22;5387;48.722;9.110;2024-03-06T11:44:32;5.70;99.90
10678;DHT22;5387;48.722;9.110;2024-03-06T11:46:59;5.70;99.90
10678;DHT22;5387;48.722;9.110;2024-03-06T11:49:27;5.70;99.90
10678;DHT22;5387;48.722;9.110;2024-03-06T11:51:58;5.70;99.90
10678;DHT22;5387;48.722;9.110;2024-03-06T11:54:25;5.70;99.90
10678;DHT22;5387;48.722;9.110;2024-03-06T11:56:54;5.60;99.90
10678;DHT22;5387;48.722;9.110;2024-03-06T11:59:22;5.90;99.90
10678;DHT22;5387;48.722;9.110;2024-03-06T12:01:51;5.60;99.90
10678;DHT22;5387;48.722;9.110;2024-03-06T12:04:19;5.50;99.90
10678;DHT22;5387;48.722;9.110;2024-03-06T12:06:46;5.50;99.90
10678;DHT22;5387;48.722;9.110;2024-03-06T12:09:13;5.60;99.90
10678;DHT22;5387;48.722;9.110;2024-03-06T12:11:41;5.60;99.90
10678;DHT22;5387;48.722;9.110;2024-03-06T12:14:13;5.60;99.90
10678;DHT22;5387;48.722;9.110;2024-03-06T12:16:42;5.60;99.90
10678;DHT22;5387;48.722;9.110;2024-03-06T12:19:10;5.50;99.90
10678;DHT22;5387;48.722;9.110;2024-03-06T12:21:39;5.50;99.90
10678;DHT22;5387;48.722;9.110;2024-03-06T12:24:07;5.60;99.90
10678;DHT22;5387;48.722;9.110;2024-03-06T12:26:35;5.70;99.90
10678;DHT22;5387;48.722;9.110;2024-03-06T12:29:06;5.80;99.90
10678;DHT22;5387;48.722;9.110;2024-03-06T12:31:35;5.70;99.90
10678;DHT22;5387;48.722;9.110;2024-03-06T12:34:02;5.60;99.90
10678;DHT22;5387;48.722;9.110;2024-03-06T12:36:30;5.50;99.90
10678;DHT22;5387;48.722;9.110;2024-03-06T12:38:59;5.50;99.90
10678;DHT22;5387;48.722;9.110;2024-03-06T12:41:26;5.50;99.90
10678;DHT22;5387;48.722;9.110;2024-03-06T12:43:54;5.50;99.90
10678;DHT22;5387;48.722;9.110;2024-03-06T12:46:22;5.50;99.90
10678;DHT22;5387;48.722;9.110;2024-03-06T12:48:49;5.50;99.90
10678;DHT22;5387;48.722;9.110;2024-03-06T12:51:15;5.50;99.90
10678;DHT22;5387;48.722;9.110;2024-03-06T12:53:44;5.60;99.90
10678;DHT22;5387;48.722;9.110;2024-03-06T12:56:10;5.50;99.90
10678;DHT22;5387;48.722;9.110;2024-03-06T12:58:37;5.50;99.90
10678;DHT22;5387;48.722;9.110;2024-03-06T13:01:04;5.70;99.90
10678;DHT22;5387;48.722;9.110;2024-03-06T13:03:31;5.50;99.90
10678;DHT22;5387;48.722;9.110;2024-03-06T13:05:59;5.60;99.90
10678;DHT22;5387;48.722;9.110;2024-03-06T13:08:26;5.70;99.90
10678;DHT22;5387;48.722;9.110;2024-03-06T13:10:54;5.80;99.90
10678;DHT22;5387;48.722;9.110;2024-03-06T13:13:21;5.80;99.90
10678;DHT22;5387;48.722;9.110;2024-03-06T13:15:50;5.90;99.90
10678;DHT22;5387;48.722;9.110;2024-03-06T13:18:17;5.90;99.90
10678;DHT22;5387;48.722;9.110;2024-03-06T13:20:44;5.90;99.90
10678;DHT22;5387;48.722;9.110;2024-03-06T13:23:11;6.00;99.90
10678;DHT22;5387;48.722;9.110;2024-03-06T13:25:37;5.90;99.90
10678;DHT22;5387;48.722;9.110;2024-03-06T13:28:06;5.80;99.90
10678;DHT22;5387;48.722;9.110;2024-03-06T13:30:34;5.80;99.90
10678;DHT22;5387;48.722;9.110;2024-03-06T13:33:01;5.80;99.90
10678;DHT22;5387;48.722;9.110;2024-03-06T13:35:28;5.80;99.90
10678;DHT22;5387;48.722;9.110;2024-03-06T13:37:54;5.80;99.90
10678;DHT22;5387;48.722;9.110;2024-03-06T13:40:21;5.80;99.90
10678;DHT22;5387;48.722;9.110;2024-03-06T13:42:48;5.70;99.90
10678;DHT22;5387;48.722;9.110;2024-03-06T13:45:16;5.80;99.90
10678;DHT22;5387;48.722;9.110;2024-03-06T13:47:44;5.70;99.90
10678;DHT22;5387;48.722;9.110;2024-03-06T13:50:12;5.80;99.90
10678;DHT22;5387;48.722;9.110;2024-03-06T13:52:39;5.70;99.90
10678;DHT22;5387;48.722;9.110;2024-03-06T13:55:07;5.80;99.90
10678;DHT22;5387;48.722;9.110;2024-03-06T13:57:34;5.80;99.90
10678;DHT22;5387;48.722;9.110;2024-03-06T14:00:02;5.80;99.90
10678;DHT22;5387;48.722;9.110;2024-03-06T14:02:32;6.00;99.90
10678;DHT22;5387;48.722;9.110;2024-03-06T14:04:59;6.00;99.90
10678;DHT22;5387;48.722;9.110;2024-03-06T14:07:25;6.00;99.90
10678;DHT22;5387;48.722;9.110;2024-03-06T14:09:53;6.00;99.90
10678;DHT22;5387;48.722;9.110;2024-03-06T14:12:22;6.00;99.90
10678;DHT22;5387;48.722;9.110;2024-03-06T14:14:49;5.90;99.90
10678;DHT22;5387;48.722;9.110;2024-03-06T14:17:16;5.90;99.90
10678;DHT22;5387;48.722;9.110;2024-03-06T14:19:45;6.00;99.90
10678;DHT22;5387;48.722;9.110;2024-03-06T14:22:12;6.10;99.90
10678;DHT22;5387;48.722;9.110;2024-03-06T14:24:38;6.00;99.90
10678;DHT22;5387;48.722;9.110;2024-03-06T14:27:06;6.00;99.90
10678;DHT22;5387;48.722;9.110;2024-03-06T14:29:33;6.10;99.90
10678;DHT22;5387;48.722;9.110;2024-03-06T14:32:00;6.00;99.90
10678;DHT22;5387;48.722;9.110;2024-03-06T14:34:26;6.00;99.90
10678;DHT22;5387;48.722;9.110;2024-03-06T14:36:54;5.90;99.90
10678;DHT22;5387;48.722;9.110;2024-03-06T14:39:21;5.90;99.90
10678;DHT22;5387;48.722;9.110;2024-03-06T14:41:51;5.80;99.90
10678;DHT22;5387;48.722;9.110;2024-03-06T14:44:18;5.80;99.90
10678;DHT22;5387;48.722;9.110;2024-03-06T14:46:46;5.80;99.90
10678;DHT22;5387;48.722;9.110;2024-03-06T14:49:13;5.80;99.90
10678;DHT22;5387;48.722;9.110;2024-03-06T14:51:42;5.80;99.90
10678;DHT22;5387;48.722;9.110;2024-03-06T14:54:10;5.80;99.90
10678;DHT22;5387;48.722;9.110;2024-03-06T14:56:37;5.80;99.90
10678;DHT22;5387;48.722;9.110;2024-03-06T14:59:04;5.90;99.90
10678;DHT22;5387;48.722;9.110;2024-03-06T15:01:30;6.00;99.90
10678;DHT22;5387;48.722;9.110;2024-03-06T15:03:58;5.90;99.90
10678;DHT22;5387;48.722;9.110;2024-03-06T15:06:25;5.90;99.90
10678;DHT22;5387;48.722;9.110;2024-03-06T15:08:52;5.90;99.90
10678;DHT22;5387;48.722;9.110;2024-03-06T15:11:20;5.90;99.90
10678;DHT22;5387;48.722;9.110;2024-03-06T15:13:48;6.00;99.90
10678;DHT22;5387;48.722;9.110;2024-03-06T15:16:16;5.90;99.90
10678;DHT22;5387;48.722;9.110;2024-03-06T15:18:43;6.00;99.90
10678;DHT22;5387;48.722;9.110;2024-03-06T15:21:10;6.00;99.90
10678;DHT22;5387;48.722;9.110;2024-03-06T15:23:38;6.00;99.90
10678;DHT22;5387;48.722;9.110;2024-03-06T15:26:05;6.10;99.90
10678;DHT22;5387;48.722;9.110;2024-03-06T15:28:33;6.10;99.90
10678;DHT22;5387;48.722;9.110;2024-03-06T15:31:00;6.10;99.90
10678;DHT22;5387;48.722;9.110;2024-03-06T15:33:29;6.00;99.90
10678;DHT22;5387;48.722;9.110;2024-03-06T15:35:56;6.00;99.90
10678;DHT22;5387;48.722;9.110;2024-03-06T15:38:24;6.10;99.90
10678;DHT22;5387;48.722;9.110;2024-03-06T15:40:50;6.00;99.90
10678;DHT22;5387;48.722;9.110;2024-03-06T15:43:17;6.00;99.90
10678;DHT22;5387;48.722;9.110;2024-03-06T15:45:45;5.90;99.90
10678;DHT22;5387;48.722;9.110;2024-03-06T15:48:12;5.90;99.90
10678;DHT22;5387;48.722;9.110;2024-03-06T15:50:39;5.90;99.90
10678;DHT22;5387;48.722;9.110;2024-03-06T15:53:06;5.80;99.90
10678;DHT22;5387;48.722;9.110;2024-03-06T15:55:34;5.80;99.90
10678;DHT22;5387;48.722;9.110;2024-03-06T15:58:01;5.80;99.90
10678;DHT22;5387;48.722;9.110;2024-03-06T16:00:28;5.80;99.90
10678;DHT22;5387;48.722;9.110;2024-03-06T16:02:56;5.80;99.90